Algernon, Nebraska
Current Conditions -  °F | °C
As of 12:00 PM on Thursday 23 Oct 2014 (Local Time) from KBBW Reporting Station
Overcast Overcast  
Wind Chill: 58°   Ceiling: 500
Heat Index: 58°   Visibility: 10mi
Dew Point: 55°   Wind: 5mph
Humidity: 90%   Direction: NA
Pressure: 30.09"   Gusts: NA
Location:  41.1632°N, 99.3112°W
Report Text: KBBW 231700Z AUTO VRB04KT 10SM OVC005 14/13 A3009 RMK AO2 T01440128
Loading
Personal Weather Stations






























Interactive Weather Map
Tropical Storm Tracking
New forecast layout! Learn more

10-Day Weather Forecast

Advertisements
Track Severe Weather on mobile